Sawyer International Airport Marquette US
ICAO: KSAW
IATA: SAW
Category: Medium
Scheduled Services: No

Elevation: 1221 ft
TransAlt. 18000 ft.

Airport Communications:
AWOS 3:118.375
MINNEAPOLIS CNTR:119.1
CTAF:119.975
GND:121.65
GREEN BAY RDO:123.6
TWR:119.975
UNICOM:122.7

KSAW Zoom In..

If you have problems with the map follow the link
https://www.worldairports.se/pages/airport.php?
ICAO=KSAW

Runways:

(A) RW 01 length 12366 ft width 150 ft
ILS 110.10 / hdg 13

(B) RW 19 length 12366 ft width 150 ft
---- / hdg 193

Location; KSAW
Day. 21 / Time. 08.38 Zulu
* Altimeter: 30.20
* Temperature: 00° c. 32°f.
* Wind from: 280° Speed 05 kn.
Dewpoint: -05° c.
Visibility: 10 Statute Miles.
Clouds: Overcast 2900 ft.

KSAW 210838Z AUTO 28005KT 10SM OVC029 00/M05 A3020 RMK AO2 T10051055


Wind From 280°
Speed 05 kn.

 
 
jpsmedia.com for Web Design worldairports.se 2018   terms of use